Time;durP1;ratioP1;P1;durP2;ratioP2;P2;SDS_P1;SDS_P2;PMS_P1;PMS_P2;Temp;Humidity;BMP_temperature;BMP_pressure;BME280_temperature;BME280_humidity;BME280_pressure;Samples;Min_cycle;Max_cycle;Signal;HPM_P1;HPM_P2
2021/04/12 00:01:25;;;;;;;7.47;4.70;;;5.10;1.00;;;;;;4865332;28;20641;-74
2021/04/12 00:03:52;;;;;;;4.10;3.60;;;5.20;33.90;;;;;;4869639;28;20263;-74
2021/04/12 00:06:20;;;;;;;8.57;5.63;;;5.30;1.00;;;;;;4867474;28;20243;-77
2021/04/12 00:08:49;;;;;;;5.70;4.40;;;5.30;1.00;;;;;;4866227;28;20550;-76
2021/04/12 00:11:20;;;;;;;6.97;4.77;;;5.20;99.90;;;;;;4858323;28;20721;-75
2021/04/12 00:13:46;;;;;;;5.47;4.57;;;5.10;1.00;;;;;;4857260;28;20264;-75
2021/04/12 00:16:14;;;;;;;9.00;5.67;;;5.00;99.90;;;;;;4863397;28;20202;-74
2021/04/12 00:18:42;;;;;;;8.63;5.60;;;4.80;99.90;;;;;;4865966;28;20232;-74
2021/04/12 00:21:09;;;;;;;5.50;4.70;;;4.70;67.70;;;;;;4865497;28;20225;-73
2021/04/12 00:23:38;;;;;;;6.30;5.37;;;4.60;99.90;;;;;;4859989;28;20182;-73
2021/04/12 00:26:09;;;;;;;10.00;6.93;;;4.40;1.00;;;;;;4866366;28;20762;-74
2021/04/12 00:28:36;;;;;;;14.40;8.03;;;4.40;99.90;;;;;;4856978;28;20178;-73
2021/04/12 00:31:04;;;;;;;8.20;6.53;;;4.30;99.90;;;;;;4860792;28;20236;-74
2021/04/12 00:33:32;;;;;;;9.80;8.00;;;4.20;1.00;;;;;;4870238;28;20654;-74
2021/04/12 00:35:59;;;;;;;10.87;8.37;;;4.10;1.00;;;;;;4863738;28;20248;-74
2021/04/12 00:38:25;;;;;;;18.80;10.83;;;4.00;99.90;;;;;;4858809;28;20660;-73
2021/04/12 00:40:56;;;;;;;12.07;8.73;;;4.10;1.00;;;;;;4869407;28;20193;-73
2021/04/12 00:43:23;;;;;;;13.53;9.13;;;4.00;99.90;;;;;;4864263;28;20586;-73
2021/04/12 00:46:30;;;;;;;10.70;8.47;;;3.90;1.00;;;;;;4869784;28;20604;-73
2021/04/12 00:49:15;;;;;;;11.17;9.00;;;3.80;1.00;;;;;;4860636;28;20189;-73
2021/04/12 00:51:46;;;;;;;15.40;10.40;;;3.70;1.00;;;;;;4860638;28;20228;-74
2021/04/12 00:54:36;;;;;;;15.23;9.80;;;3.70;99.90;;;;;;4856633;28;20225;-74
2021/04/12 00:57:02;;;;;;;15.87;10.63;;;3.60;99.90;;;;;;4856941;28;20579;-73
2021/04/12 00:59:35;;;;;;;12.23;8.90;;;3.60;99.90;;;;;;4869783;28;20185;-74
2021/04/12 01:02:07;;;;;;;14.83;10.23;;;3.60;1.00;;;;;;4864325;28;20224;-73
2021/04/12 01:04:44;;;;;;;13.00;9.03;;;3.50;1.00;;;;;;4855902;28;20201;-76
2021/04/12 01:07:30;;;;;;;15.57;9.33;;;3.60;1.00;;;;;;4860779;28;20240;-75
2021/04/12 01:10:35;;;;;;;13.07;9.73;;;3.70;1.00;;;;;;4867028;28;20255;-74
2021/04/12 01:13:13;;;;;;;18.23;10.77;;;3.70;1.00;;;;;;4870906;28;20228;-77
2021/04/12 01:16:17;;;;;;;14.40;9.67;;;3.60;1.00;;;;;;4853957;28;20636;-76
2021/04/12 01:19:12;;;;;;;20.57;11.77;;;3.50;1.00;;;;;;4857412;28;20190;-75
2021/04/12 01:22:10;;;;;;;17.43;11.40;;;3.50;1.00;;;;;;4850431;28;20623;-75
2021/04/12 01:24:55;;;;;;;15.87;11.00;;;3.50;1.00;;;;;;4864852;28;20210;-73
2021/04/12 01:28:02;;;;;;;21.77;11.97;;;3.50;1.00;;;;;;4857017;28;20230;-74
2021/04/12 01:30:47;;;;;;;14.73;10.27;;;3.50;1.00;;;;;;4807145;28;20200;-77
2021/04/12 01:33:37;;;;;;;21.27;11.87;;;3.50;1.00;;;;;;4807798;28;20187;-77
2021/04/12 01:36:29;;;;;;;17.60;10.77;;;3.50;1.00;;;;;;4846283;28;20197;-77
2021/04/12 01:39:07;;;;;;;14.43;10.67;;;3.50;1.00;;;;;;4845943;28;20231;-76
2021/04/12 01:41:37;;;;;;;16.23;10.60;;;3.30;1.00;;;;;;4859416;28;20635;-76
2021/04/12 01:44:19;;;;;;;18.10;10.70;;;3.40;1.00;;;;;;4869064;28;20186;-76
2021/04/12 01:46:50;;;;;;;16.20;11.03;;;3.30;1.00;;;;;;4865166;28;20251;-77
2021/04/12 01:49:18;;;;;;;22.63;12.57;;;3.30;1.00;;;;;;4860635;28;20706;-77
2021/04/12 01:52:01;;;;;;;17.10;10.67;;;3.30;1.00;;;;;;4866665;28;20215;-77
2021/04/12 01:54:57;;;;;;;17.17;11.23;;;3.20;1.00;;;;;;4867758;28;20698;-76
2021/04/12 01:57:42;;;;;;;20.13;11.77;;;3.30;1.00;;;;;;4865925;28;20186;-78
2021/04/12 02:00:38;;;;;;;18.90;10.97;;;3.30;1.00;;;;;;4855480;28;20256;-73
2021/04/12 02:03:19;;;;;;;15.13;10.13;;;3.30;1.00;;;;;;4867264;28;20262;-77
2021/04/12 02:06:04;;;;;;;12.50;9.70;;;3.20;1.00;;;;;;4868030;28;20271;-77
2021/04/12 02:08:34;;;;;;;18.60;11.00;;;3.20;1.00;;;;;;4864149;28;20181;-77
2021/04/12 02:11:13;;;;;;;15.67;11.00;;;3.10;1.00;;;;;;4864687;28;20737;-77
2021/04/12 02:13:53;;;;;;;13.37;9.33;;;3.10;1.00;;;;;;4858700;28;20268;-77
2021/04/12 02:16:26;;;;;;;17.97;11.30;;;3.00;1.00;;;;;;4854873;28;20186;-77
2021/04/12 02:19:24;;;;;;;16.37;11.07;;;3.00;1.20;;;;;;4867280;28;20181;-77
2021/04/12 02:21:59;;;;;;;14.87;10.30;;;2.90;7.10;;;;;;4846123;28;20601;-76
2021/04/12 02:24:30;;;;;;;26.00;11.07;;;3.00;9.40;;;;;;4855193;28;20193;-77
2021/04/12 02:27:05;;;;;;;15.87;9.50;;;3.00;14.50;;;;;;4863605;28;20208;-77
2021/04/12 02:29:39;;;;;;;14.27;10.03;;;3.00;14.20;;;;;;4866476;28;20178;-77
2021/04/12 02:32:14;;;;;;;19.77;11.20;;;2.90;6.20;;;;;;4866969;28;20172;-77
2021/04/12 02:34:44;;;;;;;21.63;11.60;;;2.80;1.00;;;;;;4856513;28;20294;-77
2021/04/12 02:37:23;;;;;;;19.30;10.87;;;2.70;1.00;;;;;;4861347;28;20198;-76
2021/04/12 02:39:56;;;;;;;18.30;11.70;;;2.60;1.00;;;;;;4862551;28;20185;-75
2021/04/12 02:42:27;;;;;;;26.67;13.07;;;2.60;1.00;;;;;;4862840;28;20177;-75
2021/04/12 02:45:00;;;;;;;17.13;11.10;;;2.50;1.00;;;;;;4865473;28;20174;-76
2021/04/12 02:47:49;;;;;;;21.10;12.33;;;2.60;1.70;;;;;;4856048;28;20185;-76
2021/04/12 02:50:25;;;;;;;21.83;12.13;;;2.50;11.30;;;;;;4864873;28;20239;-76
2021/04/12 02:53:01;;;;;;;18.27;11.93;;;2.50;17.30;;;;;;4864183;28;20181;-76
2021/04/12 02:55:39;;;;;;;21.83;12.83;;;2.60;24.70;;;;;;4856067;28;20272;-77
2021/04/12 02:58:37;;;;;;;20.50;13.10;;;2.60;34.30;;;;;;4864328;28;20182;-76
2021/04/12 03:01:11;;;;;;;27.47;15.83;;;2.60;43.70;;;;;;4858935;28;20190;-76
2021/04/12 03:03:47;;;;;;;22.87;13.47;;;2.60;49.60;;;;;;4852434;28;20205;-76
2021/04/12 03:06:54;;;;;;;23.83;13.13;;;2.60;52.60;;;;;;4856264;28;20248;-75
2021/04/12 03:09:36;;;;;;;24.20;13.53;;;2.60;54.70;;;;;;4855021;28;20221;-74
2021/04/12 03:12:29;;;;;;;18.43;12.80;;;2.60;58.10;;;;;;4864294;28;20174;-76
2021/04/12 03:15:02;;;;;;;17.97;12.17;;;2.60;65.00;;;;;;4859851;28;20206;-74
2021/04/12 03:17:50;;;;;;;18.80;12.90;;;2.60;70.20;;;;;;4866036;28;20589;-74
2021/04/12 03:21:06;;;;;;;24.27;13.70;;;2.50;71.90;;;;;;4857188;28;20256;-75
2021/04/12 03:23:46;;;;;;;17.70;12.37;;;2.50;72.00;;;;;;4800305;28;20241;-77
2021/04/12 03:26:25;;;;;;;22.57;13.23;;;2.40;70.40;;;;;;4849428;28;20279;-76
2021/04/12 03:29:10;;;;;;;17.00;12.37;;;2.40;71.90;;;;;;4858387;28;20248;-74
2021/04/12 03:31:49;;;;;;;19.90;12.47;;;2.40;74.50;;;;;;4853455;28;20821;-74
2021/04/12 03:34:25;;;;;;;27.27;14.13;;;2.30;76.20;;;;;;4867680;28;20212;-76
2021/04/12 03:37:31;;;;;;;18.93;12.73;;;2.30;77.60;;;;;;4866260;28;20732;-75
2021/04/12 03:39:57;;;;;;;18.03;12.10;;;-0.40;73.10;;;;;;4802276;28;20195;-73
2021/04/12 03:42:44;;;;;;;20.27;12.77;;;2.20;75.30;;;;;;4803281;28;20192;-75
2021/04/12 03:45:25;;;;;;;17.37;11.93;;;2.00;73.00;;;;;;4835987;28;20198;-74
2021/04/12 03:48:16;;;;;;;16.27;11.73;;;2.00;70.40;;;;;;4864331;28;20181;-75
2021/04/12 03:51:06;;;;;;;19.93;12.70;;;1.90;67.20;;;;;;4859685;28;20185;-77
2021/04/12 03:54:25;;;;;;;15.43;11.70;;;1.80;64.30;;;;;;4867584;28;20240;-75
2021/04/12 03:57:02;;;;;;;14.53;11.67;;;1.70;63.40;;;;;;4832510;28;20203;-74
2021/04/12 03:59:34;;;;;;;20.00;11.80;;;1.70;63.00;;;;;;4835898;28;20195;-74
2021/04/12 04:02:37;;;;;;;16.10;11.57;;;1.70;62.20;;;;;;4843617;28;20221;-74
2021/04/12 04:05:13;;;;;;;21.73;12.70;;;1.60;63.00;;;;;;4825628;28;20260;-76
2021/04/12 04:08:01;;;;;;;20.53;12.37;;;1.60;63.10;;;;;;4864374;28;20227;-75
2021/04/12 04:11:02;;;;;;;18.83;12.23;;;1.60;65.50;;;;;;4868267;28;20830;-75
2021/04/12 04:13:59;;;;;;;16.00;11.03;;;1.60;73.50;;;;;;4851228;28;20194;-75
2021/04/12 04:16:52;;;;;;;16.20;11.73;;;1.70;78.90;;;;;;4855446;28;20174;-74
2021/04/12 04:19:51;;;;;;;18.30;11.70;;;1.70;83.40;;;;;;4852595;28;20178;-75
2021/04/12 04:22:51;;;;;;;20.17;11.67;;;1.70;86.20;;;;;;4860895;28;20178;-74
2021/04/12 04:25:35;;;;;;;19.30;11.43;;;1.70;86.90;;;;;;4867505;28;20782;-74
2021/04/12 04:28:32;;;;;;;18.67;11.27;;;1.70;89.50;;;;;;4874387;28;20189;-74
2021/04/12 04:31:31;;;;;;;18.47;11.27;;;1.80;92.10;;;;;;4866543;28;20198;-76
2021/04/12 04:34:09;;;;;;;18.80;12.00;;;1.90;93.90;;;;;;4861463;28;20181;-77
2021/04/12 04:37:01;;;;;;;15.97;10.83;;;2.00;95.10;;;;;;4858081;28;20231;-77
2021/04/12 04:39:48;;;;;;;17.37;11.07;;;2.00;96.20;;;;;;4859592;28;20260;-76
2021/04/12 04:42:42;;;;;;;17.10;11.07;;;2.10;97.60;;;;;;4864453;28;20209;-77
2021/04/12 04:45:18;;;;;;;15.30;10.80;;;2.20;99.40;;;;;;4863972;28;20185;-75
2021/04/12 04:48:13;;;;;;;15.73;10.77;;;2.30;99.90;;;;;;4864308;28;20639;-74
2021/04/12 04:50:45;;;;;;;12.20;9.77;;;2.30;99.90;;;;;;4859375;28;20174;-74
2021/04/12 04:53:25;;;;;;;15.50;10.37;;;2.40;99.90;;;;;;4866286;28;20189;-76
2021/04/12 04:55:56;;;;;;;16.27;10.70;;;2.50;99.90;;;;;;4860937;28;20202;-75
2021/04/12 04:58:23;;;;;;;22.17;11.73;;;2.70;99.90;;;;;;4866037;28;20198;-74
2021/04/12 05:01:10;;;;;;;36.23;15.40;;;2.80;99.90;;;;;;4863807;28;20703;-77
2021/04/12 05:04:07;;;;;;;14.00;9.80;;;3.00;99.90;;;;;;4859212;28;20228;-75
2021/04/12 05:07:01;;;;;;;16.20;11.73;;;3.20;99.90;;;;;;4858573;28;20694;-78
2021/04/12 05:09:37;;;;;;;21.63;12.20;;;3.40;99.90;;;;;;4866490;28;20218;-77
2021/04/12 05:12:16;;;;;;;15.33;11.07;;;3.60;99.90;;;;;;4869030;28;20181;-76
2021/04/12 05:15:06;;;;;;;20.93;13.67;;;3.90;99.90;;;;;;4863475;28;20224;-75
2021/04/12 05:17:52;;;;;;;20.73;13.37;;;4.10;99.90;;;;;;4858092;28;21119;-76
2021/04/12 05:20:24;;;;;;;20.37;14.00;;;4.30;99.90;;;;;;4864533;28;20198;-78
2021/04/12 05:23:08;;;;;;;20.50;13.70;;;4.60;99.90;;;;;;4868057;28;20182;-77
2021/04/12 05:25:58;;;;;;;15.70;12.00;;;4.80;99.90;;;;;;4858477;28;20186;-76
2021/04/12 05:28:46;;;;;;;25.27;14.00;;;5.00;99.90;;;;;;4865129;28;20189;-76
2021/04/12 05:31:50;;;;;;;20.23;12.70;;;5.30;99.90;;;;;;4853552;28;20198;-74
2021/04/12 05:34:48;;;;;;;21.00;11.20;;;5.50;99.90;;;;;;4847757;28;20423;-76
2021/04/12 05:37:29;;;;;;;19.77;11.27;;;5.70;99.90;;;;;;4862086;28;21086;-73
2021/04/12 05:40:19;;;;;;;13.67;9.60;;;6.00;99.90;;;;;;4867539;28;20182;-75
2021/04/12 05:43:14;;;;;;;13.10;8.70;;;6.20;99.90;;;;;;4864542;28;20235;-76
2021/04/12 05:46:27;;;;;;;10.37;7.67;;;6.50;99.90;;;;;;4869270;28;20205;-76
2021/04/12 05:49:21;;;;;;;14.93;8.00;;;6.90;99.90;;;;;;4863552;28;20198;-77
2021/04/12 05:52:00;;;;;;;16.20;9.17;;;7.20;99.90;;;;;;4863076;28;20205;-75
2021/04/12 05:54:42;;;;;;;12.40;7.33;;;7.50;99.90;;;;;;4869274;28;20178;-75
2021/04/12 05:57:30;;;;;;;9.50;5.80;;;7.70;99.90;;;;;;4872412;28;20205;-75
2021/04/12 06:00:29;;;;;;;7.87;5.20;;;8.00;96.00;;;;;;4875699;28;20577;-76
2021/04/12 06:03:20;;;;;;;10.40;6.70;;;8.30;84.10;;;;;;4853594;28;20283;-75
2021/04/12 06:05:59;;;;;;;7.67;4.90;;;8.50;68.60;;;;;;4858309;28;20182;-76
2021/04/12 06:08:38;;;;;;;21.30;10.17;;;8.80;55.50;;;;;;4856152;28;20181;-75
2021/04/12 06:11:21;;;;;;;7.90;5.23;;;9.10;38.30;;;;;;4857200;28;20217;-78
2021/04/12 06:14:12;;;;;;;7.83;4.97;;;9.30;22.80;;;;;;4856324;28;20206;-77
2021/04/12 06:17:05;;;;;;;5.60;3.90;;;9.60;1.00;;;;;;4856749;28;20525;-77
2021/04/12 06:20:11;;;;;;;10.40;4.30;;;10.20;1.00;;;;;;4856193;28;20174;-77
2021/04/12 06:23:05;;;;;;;7.00;3.33;;;10.60;99.90;;;;;;4864425;28;20554;-76
2021/04/12 06:26:09;;;;;;;10.70;3.93;;;10.90;99.90;;;;;;4864821;28;20169;-76
2021/04/12 06:28:58;;;;;;;13.90;4.67;;;11.10;99.90;;;;;;4857267;28;20194;-77
2021/04/12 06:32:23;;;;;;;12.10;4.23;;;11.10;99.90;;;;;;4860730;28;20224;-78
2021/04/12 06:35:26;;;;;;;7.30;2.97;;;11.20;99.90;;;;;;4798402;28;20265;-76
2021/04/12 06:38:18;;;;;;;6.63;2.97;;;11.40;99.90;;;;;;4783256;28;20207;-76
2021/04/12 06:41:20;;;;;;;9.23;3.17;;;11.50;99.90;;;;;;4845061;28;20261;-78
2021/04/12 06:44:19;;;;;;;7.13;2.80;;;11.60;99.90;;;;;;4861831;28;20231;-75
2021/04/12 06:47:19;;;;;;;8.07;2.70;;;11.70;1.00;;;;;;4857253;28;20236;-76
2021/04/12 06:50:29;;;;;;;7.23;2.70;;;11.80;1.00;;;;;;4850418;28;20232;-76
2021/04/12 06:53:36;;;;;;;6.30;2.13;;;11.90;1.00;;;;;;4864712;28;20248;-75
2021/04/12 06:56:33;;;;;;;6.53;2.23;;;12.00;1.00;;;;;;4864443;28;20205;-77
2021/04/12 06:59:29;;;;;;;8.10;2.47;;;12.10;1.00;;;;;;4853669;28;20264;-75
2021/04/12 07:02:20;;;;;;;4.53;1.80;;;12.10;1.00;;;;;;4845745;28;20225;-76
2021/04/12 07:05:15;;;;;;;8.97;2.93;;;12.40;1.00;;;;;;4864642;28;20185;-76
2021/04/12 07:08:21;;;;;;;8.40;2.77;;;12.50;1.00;;;;;;4875716;28;20181;-75
2021/04/12 07:11:20;;;;;;;8.53;2.37;;;12.70;1.00;;;;;;4784122;28;20220;-77
2021/04/12 07:14:14;;;;;;;6.23;2.10;;;12.90;1.00;;;;;;4855058;28;20202;-77
2021/04/12 07:17:02;;;;;;;7.10;2.43;;;13.30;1.00;;;;;;4855751;28;20251;-75
2021/04/12 07:20:05;;;;;;;9.33;2.50;;;13.70;1.00;;;;;;4859865;28;20185;-75
2021/04/12 07:22:50;;;;;;;5.47;1.87;;;14.20;1.00;;;;;;4855447;28;20540;-76
2021/04/12 07:25:48;;;;;;;12.80;3.03;;;14.80;1.00;;;;;;4865397;28;20521;-75
2021/04/12 07:29:03;;;;;;;7.60;1.97;;;15.40;99.90;;;;;;4868476;28;20247;-75
2021/04/12 07:32:17;;;;;;;12.67;2.53;;;16.00;99.90;;;;;;4856233;28;20197;-75
2021/04/12 07:35:23;;;;;;;16.27;3.23;;;16.90;99.90;;;;;;4858295;28;20238;-74
2021/04/12 07:38:55;;;;;;;10.87;2.17;;;16.80;99.90;;;;;;4851996;28;20194;-76
2021/04/12 07:41:56;;;;;;;15.33;3.03;;;17.20;99.90;;;;;;4807560;28;20227;-75
2021/04/12 07:45:11;;;;;;;11.60;2.30;;;17.60;99.90;;;;;;4868539;28;20258;-75
2021/04/12 07:48:11;;;;;;;11.30;2.23;;;17.90;99.90;;;;;;4800924;28;20250;-76
2021/04/12 07:51:07;;;;;;;8.50;1.77;;;18.10;99.90;;;;;;4811933;28;20199;-76
2021/04/12 07:54:18;;;;;;;12.60;2.40;;;18.30;99.90;;;;;;4857968;28;20208;-74
2021/04/12 07:57:31;;;;;;;11.30;2.10;;;18.70;99.90;;;;;;4856699;28;20206;-77
2021/04/12 08:00:28;;;;;;;9.30;1.80;;;19.10;99.90;;;;;;4821326;28;20210;-75
2021/04/12 08:03:29;;;;;;;10.87;2.07;;;19.50;99.90;;;;;;4857966;28;20237;-74
2021/04/12 08:06:14;;;;;;;6.50;1.40;;;19.90;99.90;;;;;;4847476;28;20251;-77
2021/04/12 08:08:54;;;;;;;11.60;2.17;;;20.10;99.90;;;;;;4856833;28;20693;-75
2021/04/12 08:11:47;;;;;;;10.83;2.07;;;20.40;99.90;;;;;;4866461;28;20240;-75
2021/04/12 08:14:39;;;;;;;9.20;1.63;;;20.60;99.90;;;;;;4868992;28;20614;-75
2021/04/12 08:17:48;;;;;;;9.37;1.80;;;20.70;99.90;;;;;;4864182;28;20175;-76
2021/04/12 08:20:50;;;;;;;8.30;1.63;;;20.80;99.90;;;;;;4860367;28;20189;-75
2021/04/12 08:23:57;;;;;;;9.03;1.70;;;20.60;99.90;;;;;;4843066;28;20322;-76
2021/04/12 08:26:55;;;;;;;13.90;2.53;;;20.30;99.90;;;;;;4856219;28;20753;-78
2021/04/12 08:29:54;;;;;;;12.80;2.30;;;19.90;99.90;;;;;;4858560;28;20181;-74
2021/04/12 08:32:55;;;;;;;16.37;2.87;;;19.70;99.90;;;;;;4864967;28;20221;-76
2021/04/12 08:36:12;;;;;;;12.33;2.40;;;19.50;99.90;;;;;;4851032;28;20219;-74
2021/04/12 08:39:05;;;;;;;16.00;2.90;;;19.40;99.90;;;;;;4853647;28;20240;-76
2021/04/12 08:41:45;;;;;;;10.97;2.13;;;19.30;99.90;;;;;;4851272;28;20221;-75
2021/04/12 08:44:30;;;;;;;8.53;1.70;;;19.50;99.90;;;;;;4865486;28;20186;-76
2021/04/12 08:47:17;;;;;;;6.87;1.37;;;19.80;99.90;;;;;;4861245;28;20637;-74
2021/04/12 08:50:22;;;;;;;6.60;1.50;;;20.20;99.90;;;;;;4857363;28;20637;-74
2021/04/12 08:53:12;;;;;;;5.63;1.17;;;20.70;99.90;;;;;;4863859;28;20230;-76
2021/04/12 08:56:04;;;;;;;8.93;1.73;;;21.20;99.90;;;;;;4861275;28;20203;-75
2021/04/12 08:58:59;;;;;;;21.37;3.80;;;21.60;99.90;;;;;;4845843;28;20201;-75
2021/04/12 09:02:10;;;;;;;14.73;2.63;;;21.80;99.90;;;;;;4866126;28;20648;-78
2021/04/12 09:05:12;;;;;;;6.60;1.27;;;22.00;99.90;;;;;;4799540;28;20220;-74
2021/04/12 09:08:04;;;;;;;11.63;2.10;;;22.10;99.90;;;;;;4858380;28;20236;-74
2021/04/12 09:10:46;;;;;;;11.63;2.03;;;22.40;99.90;;;;;;4867355;28;20260;-77
2021/04/12 09:13:40;;;;;;;7.87;1.47;;;22.40;99.90;;;;;;4859284;28;20630;-76
2021/04/12 09:16:17;;;;;;;6.30;1.23;;;22.30;99.90;;;;;;4858667;28;20205;-76
2021/04/12 09:19:06;;;;;;;9.00;1.63;;;22.40;99.90;;;;;;4873072;28;20682;-75
2021/04/12 09:22:05;;;;;;;5.33;1.10;;;22.50;99.90;;;;;;4858098;28;20182;-75
2021/04/12 09:25:14;;;;;;;16.80;2.70;;;22.70;99.90;;;;;;4856793;28;20607;-76
2021/04/12 09:28:09;;;;;;;11.40;1.93;;;23.00;99.90;;;;;;4836890;28;20255;-76
2021/04/12 09:31:07;;;;;;;6.00;1.20;;;23.00;99.90;;;;;;4867961;28;20250;-77
2021/04/12 09:33:56;;;;;;;11.83;2.00;;;23.00;99.90;;;;;;4858262;28;20191;-78
2021/04/12 09:37:02;;;;;;;16.30;2.80;;;23.10;99.90;;;;;;4855174;28;20203;-76
2021/04/12 09:40:03;;;;;;;9.83;1.73;;;23.10;99.90;;;;;;4825758;28;20617;-78
2021/04/12 09:42:47;;;;;;;10.07;1.83;;;23.10;99.90;;;;;;4863694;28;20279;-76
2021/04/12 09:45:50;;;;;;;16.73;2.73;;;23.10;99.90;;;;;;4869839;28;20693;-78
2021/04/12 09:48:34;;;;;;;9.70;1.70;;;23.00;99.90;;;;;;4864038;28;20242;-77
2021/04/12 09:51:39;;;;;;;8.13;1.43;;;22.80;99.90;;;;;;4868094;28;20180;-76
2021/04/12 09:54:38;;;;;;;8.17;1.60;;;22.60;99.90;;;;;;4868198;28;20183;-76
2021/04/12 09:57:47;;;;;;;7.67;1.47;;;22.70;99.90;;;;;;4836921;28;20263;-75
2021/04/12 10:00:26;;;;;;;7.37;1.40;;;22.80;99.90;;;;;;4865950;28;20187;-76
2021/04/12 10:03:24;;;;;;;7.97;1.53;;;23.10;99.90;;;;;;4859957;28;20594;-75
2021/04/12 10:06:20;;;;;;;11.00;2.00;;;23.60;99.90;;;;;;4862391;28;20202;-76
2021/04/12 10:09:01;;;;;;;9.50;1.63;;;24.20;99.90;;;;;;4859207;28;20175;-76
2021/04/12 10:11:33;;;;;;;64.10;9.37;;;24.50;99.90;;;;;;4856921;28;20219;-77
2021/04/12 10:14:10;;;;;;;6.40;1.17;;;24.70;99.90;;;;;;4858531;28;20196;-76
2021/04/12 10:16:36;;;;;;;12.53;2.17;;;24.60;99.90;;;;;;4857537;28;20207;-76
2021/04/12 10:19:07;;;;;;;10.40;1.80;;;24.60;99.90;;;;;;4866892;28;20191;-78
2021/04/12 10:21:35;;;;;;;5.57;1.10;;;24.50;99.90;;;;;;4854577;28;20239;-79
2021/04/12 10:24:08;;;;;;;6.10;1.20;;;24.50;99.90;;;;;;4857138;28;20188;-75
2021/04/12 10:26:39;;;;;;;11.83;2.07;;;24.60;99.90;;;;;;4856314;28;20231;-76
2021/04/12 10:29:10;;;;;;;6.70;1.30;;;24.80;99.90;;;;;;4856015;28;20658;-75
2021/04/12 10:31:35;;;;;;;9.53;1.80;;;24.90;99.90;;;;;;4856080;28;20302;-76
2021/04/12 10:34:15;;;;;;;10.53;1.90;;;25.00;99.90;;;;;;4856635;28;20187;-77
2021/04/12 10:37:05;;;;;;;13.23;2.23;;;24.90;99.90;;;;;;4855024;28;20212;-75
2021/04/12 10:39:34;;;;;;;12.97;2.13;;;24.80;99.90;;;;;;4855605;28;20188;-76
2021/04/12 10:42:03;;;;;;;9.57;1.70;;;24.60;99.90;;;;;;4855982;28;20230;-78
2021/04/12 10:44:33;;;;;;;6.83;1.30;;;24.80;99.90;;;;;;4856170;28;20808;-74
2021/04/12 10:47:01;;;;;;;13.13;2.13;;;26.00;99.90;;;;;;4865345;28;20189;-75
2021/04/12 10:49:29;;;;;;;13.70;2.27;;;28.00;99.90;;;;;;4865083;28;20189;-75
2021/04/12 10:51:57;;;;;;;7.00;1.10;;;30.80;99.90;;;;;;4867394;28;20196;-77
2021/04/12 10:54:48;;;;;;;22.00;2.90;;;33.70;99.90;;;;;;4856992;28;20192;-76
2021/04/12 10:57:30;;;;;;;8.10;3.00;;;36.80;99.90;;;;;;4853157;28;20551;-76
2021/04/12 11:00:24;;;;;;;3.67;0.85;;;38.30;99.90;;;;;;4869993;28;20228;-76
2021/04/12 11:03:26;;;;;;;9.43;1.45;;;39.60;99.90;;;;;;4856494;28;20354;-76
2021/04/12 11:06:05;;;;;;;10.43;1.65;;;41.90;99.90;;;;;;4868941;28;20227;-74
2021/04/12 11:08:36;;;;;;;83.18;60.28;;;44.10;99.90;;;;;;4869500;28;20185;-76
2021/04/12 11:11:11;;;;;;;9.45;1.60;;;44.10;99.90;;;;;;4870880;28;20606;-76
2021/04/12 11:13:36;;;;;;;7.57;1.25;;;42.70;99.90;;;;;;4861082;28;20177;-77
2021/04/12 11:16:13;;;;;;;9.15;1.45;;;40.30;99.90;;;;;;4868076;28;20699;-76
2021/04/12 11:18:43;;;;;;;19.65;2.80;;;37.40;99.90;;;;;;4858303;28;20222;-73
2021/04/12 11:21:19;;;;;;;11.00;1.73;;;34.80;99.90;;;;;;4866777;28;20189;-73
2021/04/12 11:23:56;;;;;;;10.45;1.60;;;32.40;99.90;;;;;;4862332;28;20186;-76
2021/04/12 11:26:23;;;;;;;18.75;2.63;;;30.40;99.90;;;;;;4859599;28;20229;-75
2021/04/12 11:28:53;;;;;;;13.07;1.95;;;28.90;99.90;;;;;;4858270;28;20197;-75
2021/04/12 11:31:40;;;;;;;11.32;1.70;;;27.70;99.90;;;;;;4858771;28;20201;-76
2021/04/12 11:34:26;;;;;;;8.02;1.30;;;26.50;99.90;;;;;;4858722;28;20679;-76
2021/04/12 11:37:17;;;;;;;13.23;2.00;;;25.60;99.90;;;;;;4862405;28;20204;-74
2021/04/12 11:39:44;;;;;;;6.50;1.17;;;24.60;99.90;;;;;;4863166;28;20181;-74
2021/04/12 11:42:10;;;;;;;9.27;1.50;;;23.80;99.90;;;;;;4867807;28;20199;-75
2021/04/12 11:44:38;;;;;;;3.03;0.60;;;23.10;99.90;;;;;;4860006;28;20193;-75
2021/04/12 11:47:26;;;;;;;11.57;1.80;;;22.40;99.90;;;;;;4869382;28;20235;-76
2021/04/12 11:50:15;;;;;;;8.80;1.47;;;21.80;99.90;;;;;;4857548;28;20246;-75
2021/04/12 11:52:48;;;;;;;8.83;1.40;;;21.30;99.90;;;;;;4851191;28;20192;-75
2021/04/12 11:55:18;;;;;;;5.50;1.10;;;20.80;99.90;;;;;;4862223;28;20189;-75
2021/04/12 11:57:47;;;;;;;11.87;1.97;;;20.40;99.90;;;;;;4867308;28;20267;-75
2021/04/12 12:00:14;;;;;;;6.70;1.27;;;20.00;99.90;;;;;;4866621;28;20191;-75
2021/04/12 12:02:48;;;;;;;5.90;1.20;;;19.80;99.90;;;;;;4867503;28;20202;-75
2021/04/12 12:05:15;;;;;;;6.53;1.23;;;19.60;99.90;;;;;;4869520;28;20271;-75
2021/04/12 12:07:41;;;;;;;12.93;2.20;;;19.60;99.90;;;;;;4863083;28;20526;-74
2021/04/12 12:10:14;;;;;;;5.97;1.20;;;19.60;99.90;;;;;;4868341;28;20213;-74
2021/04/12 12:12:49;;;;;;;7.80;1.43;;;19.60;99.90;;;;;;4865665;28;20239;-74
2021/04/12 12:15:22;;;;;;;9.20;1.60;;;19.70;99.90;;;;;;4866869;28;20190;-74
2021/04/12 12:17:51;;;;;;;7.03;1.43;;;19.80;99.90;;;;;;4870636;28;20205;-75
2021/04/12 12:20:18;;;;;;;10.07;1.80;;;20.00;99.90;;;;;;4861668;28;20192;-74
2021/04/12 12:22:50;;;;;;;6.30;1.23;;;20.10;99.90;;;;;;4871877;28;20785;-75
2021/04/12 12:25:18;;;;;;;6.13;1.23;;;20.40;99.90;;;;;;4857016;28;20231;-73
2021/04/12 12:27:49;;;;;;;8.23;1.53;;;21.80;99.90;;;;;;4866660;28;20233;-75
2021/04/12 12:30:22;;;;;;;4.97;1.07;;;24.20;99.90;;;;;;4856237;28;20241;-74
2021/04/12 12:32:53;;;;;;;7.90;1.47;;;27.10;99.90;;;;;;4858550;28;20188;-75
2021/04/12 12:35:35;;;;;;;9.53;1.70;;;28.40;99.90;;;;;;4865349;28;20184;-76
2021/04/12 12:38:13;;;;;;;6.47;1.23;;;28.40;99.90;;;;;;4858009;28;20203;-75
2021/04/12 12:40:43;;;;;;;6.67;1.37;;;27.90;99.90;;;;;;4859379;28;20178;-75
2021/04/12 12:43:09;;;;;;;4.33;0.93;;;27.30;99.90;;;;;;4865180;28;20188;-75
2021/04/12 12:45:36;;;;;;;5.27;1.10;;;27.10;99.90;;;;;;4859578;28;20262;-75
2021/04/12 12:48:05;;;;;;;6.70;1.27;;;27.80;99.90;;;;;;4857883;28;20637;-76
2021/04/12 12:50:30;;;;;;;11.33;2.00;;;29.90;99.90;;;;;;4865854;28;20254;-77
2021/04/12 12:52:56;;;;;;;2.13;0.60;;;31.10;99.90;;;;;;4866261;28;20192;-73
2021/04/12 12:55:24;;;;;;;13.48;2.25;;;32.80;99.90;;;;;;4863177;28;20236;-73
2021/04/12 12:57:47;;;;;;;5.82;1.17;;;33.10;99.90;;;;;;4868897;28;20213;-72
2021/04/12 13:00:17;;;;;;;5.60;1.05;;;33.20;99.90;;;;;;4870069;28;20238;-73
2021/04/12 13:02:41;;;;;;;6.20;1.23;;;32.30;99.90;;;;;;4856896;28;20220;-73
2021/04/12 13:05:10;;;;;;;5.00;1.00;;;31.40;99.90;;;;;;4858645;28;20181;-73
2021/04/12 13:07:33;;;;;;;12.40;2.20;;;30.40;99.90;;;;;;4858531;28;20189;-74
2021/04/12 13:09:58;;;;;;;5.57;1.20;;;30.60;99.90;;;;;;4867632;28;20210;-75
2021/04/12 13:12:20;;;;;;;14.02;2.38;;;;;;;;;;4867584;28;20190;-74
2021/04/12 13:14:44;;;;;;;10.25;1.83;;;31.90;99.90;;;;;;4870874;28;20247;-74
2021/04/12 13:17:28;;;;;;;5.55;1.10;;;32.30;99.90;;;;;;4858320;28;20675;-74
2021/04/12 13:19:53;;;;;;;7.35;1.38;;;31.90;99.90;;;;;;4848539;28;20197;-73
2021/04/12 13:22:23;;;;;;;12.13;2.13;;;31.10;99.90;;;;;;4855553;28;20201;-74
2021/04/12 13:24:45;;;;;;;5.47;1.10;;;;;;;;;;4862668;28;20307;-76
2021/04/12 13:27:11;;;;;;;9.70;1.80;;;29.00;99.90;;;;;;4867904;28;20226;-73
2021/04/12 13:29:43;;;;;;;3.90;0.83;;;28.00;99.90;;;;;;4855270;28;20224;-73
2021/04/12 13:32:12;;;;;;;8.87;1.77;;;26.90;99.90;;;;;;4857762;28;20222;-73
2021/04/12 13:34:43;;;;;;;4.27;0.97;;;26.00;99.90;;;;;;4860874;28;20188;-74
2021/04/12 13:37:12;;;;;;;4.13;0.97;;;25.50;99.90;;;;;;4860478;28;20256;-74
2021/04/12 13:39:42;;;;;;;3.80;0.90;;;25.40;99.90;;;;;;4866671;28;20190;-73
2021/04/12 13:42:12;;;;;;;6.20;1.30;;;25.80;99.90;;;;;;4863704;28;20185;-74
2021/04/12 13:44:43;;;;;;;4.57;1.10;;;25.80;99.90;;;;;;4861194;28;20206;-75
2021/04/12 13:47:09;;;;;;;6.07;1.30;;;25.60;99.90;;;;;;4866729;28;20524;-74
2021/04/12 13:49:41;;;;;;;11.77;2.20;;;26.00;99.90;;;;;;4853083;28;20220;-74
2021/04/12 13:52:07;;;;;;;5.70;1.27;;;26.80;99.90;;;;;;4865515;28;20179;-74
2021/04/12 13:54:38;;;;;;;9.23;1.83;;;25.20;99.90;;;;;;4857513;28;20528;-74
2021/04/12 13:57:05;;;;;;;20.57;3.90;;;24.60;99.90;;;;;;4864415;28;20193;-75
2021/04/12 13:59:31;;;;;;;9.10;1.83;;;24.00;99.90;;;;;;4854895;28;20196;-74
2021/04/12 14:01:57;;;;;;;4.17;1.00;;;23.40;99.90;;;;;;4860714;28;20192;-74
2021/04/12 14:04:24;;;;;;;9.63;1.90;;;22.80;99.90;;;;;;4862177;28;20206;-74
2021/04/12 14:06:55;;;;;;;3.87;0.93;;;22.30;99.90;;;;;;4862935;28;20605;-75
2021/04/12 14:09:23;;;;;;;11.07;2.00;;;21.90;99.90;;;;;;4863995;28;20212;-75